sensor_id;sensor_type;location;lat;lon;timestamp;temperature;humidity
17988;DHT22;9119;50.932;5.342;2023-04-19T00:01:30;10.90;99.90
17988;DHT22;9119;50.932;5.342;2023-04-19T00:03:57;10.80;99.90
17988;DHT22;9119;50.932;5.342;2023-04-19T00:06:22;10.90;99.90
17988;DHT22;9119;50.932;5.342;2023-04-19T00:08:49;10.90;99.90
17988;DHT22;9119;50.932;5.342;2023-04-19T00:11:14;10.90;99.90
17988;DHT22;9119;50.932;5.342;2023-04-19T00:13:40;10.80;99.90
17988;DHT22;9119;50.932;5.342;2023-04-19T00:16:06;10.80;99.90
17988;DHT22;9119;50.932;5.342;2023-04-19T00:18:34;10.80;99.90
17988;DHT22;9119;50.932;5.342;2023-04-19T00:21:00;10.90;99.90
17988;DHT22;9119;50.932;5.342;2023-04-19T00:23:27;10.90;99.90
17988;DHT22;9119;50.932;5.342;2023-04-19T00:25:52;10.90;99.90
17988;DHT22;9119;50.932;5.342;2023-04-19T00:28:18;10.90;99.90
17988;DHT22;9119;50.932;5.342;2023-04-19T00:30:44;10.90;99.90
17988;DHT22;9119;50.932;5.342;2023-04-19T00:33:09;10.90;99.90
17988;DHT22;9119;50.932;5.342;2023-04-19T00:35:40;10.90;99.90
17988;DHT22;9119;50.932;5.342;2023-04-19T00:38:08;10.90;99.90
17988;DHT22;9119;50.932;5.342;2023-04-19T00:40:37;11.00;99.90
17988;DHT22;9119;50.932;5.342;2023-04-19T00:43:02;10.90;99.90
17988;DHT22;9119;50.932;5.342;2023-04-19T00:45:28;11.00;99.90
17988;DHT22;9119;50.932;5.342;2023-04-19T00:47:55;11.00;99.90
17988;DHT22;9119;50.932;5.342;2023-04-19T00:50:20;11.00;99.90
17988;DHT22;9119;50.932;5.342;2023-04-19T00:52:47;10.90;99.90
17988;DHT22;9119;50.932;5.342;2023-04-19T00:55:13;11.00;99.90
17988;DHT22;9119;50.932;5.342;2023-04-19T00:57:39;11.00;99.90
17988;DHT22;9119;50.932;5.342;2023-04-19T01:00:06;11.10;99.90
17988;DHT22;9119;50.932;5.342;2023-04-19T01:02:34;11.00;99.90
17988;DHT22;9119;50.932;5.342;2023-04-19T01:05:00;11.10;99.90
17988;DHT22;9119;50.932;5.342;2023-04-19T01:07:26;11.00;99.90
17988;DHT22;9119;50.932;5.342;2023-04-19T01:09:52;11.10;99.90
17988;DHT22;9119;50.932;5.342;2023-04-19T01:12:17;11.10;99.90
17988;DHT22;9119;50.932;5.342;2023-04-19T01:14:43;11.10;99.90
17988;DHT22;9119;50.932;5.342;2023-04-19T01:17:09;11.00;99.90
17988;DHT22;9119;50.932;5.342;2023-04-19T01:19:35;11.10;99.90
17988;DHT22;9119;50.932;5.342;2023-04-19T01:22:03;11.10;99.90
17988;DHT22;9119;50.932;5.342;2023-04-19T01:24:29;11.10;99.90
17988;DHT22;9119;50.932;5.342;2023-04-19T01:26:55;11.10;99.90
17988;DHT22;9119;50.932;5.342;2023-04-19T01:29:21;11.10;99.90
17988;DHT22;9119;50.932;5.342;2023-04-19T01:31:48;11.10;99.90
17988;DHT22;9119;50.932;5.342;2023-04-19T01:34:18;11.10;99.90
17988;DHT22;9119;50.932;5.342;2023-04-19T01:36:44;11.10;99.90
17988;DHT22;9119;50.932;5.342;2023-04-19T01:39:10;11.10;99.90
17988;DHT22;9119;50.932;5.342;2023-04-19T01:41:36;11.20;99.90
17988;DHT22;9119;50.932;5.342;2023-04-19T01:44:02;11.20;99.90
17988;DHT22;9119;50.932;5.342;2023-04-19T01:46:27;11.30;99.90
17988;DHT22;9119;50.932;5.342;2023-04-19T01:48:53;11.30;99.90
17988;DHT22;9119;50.932;5.342;2023-04-19T01:51:19;11.30;99.90
17988;DHT22;9119;50.932;5.342;2023-04-19T01:53:46;11.20;99.90
17988;DHT22;9119;50.932;5.342;2023-04-19T01:56:17;11.20;99.90
17988;DHT22;9119;50.932;5.342;2023-04-19T01:58:42;11.20;99.90
17988;DHT22;9119;50.932;5.342;2023-04-19T02:01:08;11.20;99.90
17988;DHT22;9119;50.932;5.342;2023-04-19T02:03:39;11.30;99.90
17988;DHT22;9119;50.932;5.342;2023-04-19T02:06:09;11.30;99.90
17988;DHT22;9119;50.932;5.342;2023-04-19T02:08:35;11.30;99.90
17988;DHT22;9119;50.932;5.342;2023-04-19T02:11:08;11.20;99.90
17988;DHT22;9119;50.932;5.342;2023-04-19T02:13:34;11.20;99.90
17988;DHT22;9119;50.932;5.342;2023-04-19T02:16:00;11.00;99.90
17988;DHT22;9119;50.932;5.342;2023-04-19T02:18:30;11.30;99.90
17988;DHT22;9119;50.932;5.342;2023-04-19T02:20:57;11.20;99.90
17988;DHT22;9119;50.932;5.342;2023-04-19T02:23:23;11.30;99.90
17988;DHT22;9119;50.932;5.342;2023-04-19T02:25:50;11.30;99.90
17988;DHT22;9119;50.932;5.342;2023-04-19T02:28:15;11.30;99.90
17988;DHT22;9119;50.932;5.342;2023-04-19T02:30:41;11.30;99.90
17988;DHT22;9119;50.932;5.342;2023-04-19T02:33:07;11.30;99.90
17988;DHT22;9119;50.932;5.342;2023-04-19T02:35:32;11.20;99.90
17988;DHT22;9119;50.932;5.342;2023-04-19T02:38:01;11.20;99.90
17988;DHT22;9119;50.932;5.342;2023-04-19T02:40:26;11.20;99.90
17988;DHT22;9119;50.932;5.342;2023-04-19T02:42:52;11.30;99.90
17988;DHT22;9119;50.932;5.342;2023-04-19T02:45:18;11.30;99.90
17988;DHT22;9119;50.932;5.342;2023-04-19T02:47:43;11.30;99.90
17988;DHT22;9119;50.932;5.342;2023-04-19T02:50:11;11.30;99.90
17988;DHT22;9119;50.932;5.342;2023-04-19T02:52:37;11.30;99.90
17988;DHT22;9119;50.932;5.342;2023-04-19T02:55:04;11.30;99.90
17988;DHT22;9119;50.932;5.342;2023-04-19T02:57:31;11.30;99.90
17988;DHT22;9119;50.932;5.342;2023-04-19T02:59:56;11.30;99.90
17988;DHT22;9119;50.932;5.342;2023-04-19T03:02:23;11.30;99.90
17988;DHT22;9119;50.932;5.342;2023-04-19T03:04:49;11.30;99.90
17988;DHT22;9119;50.932;5.342;2023-04-19T03:07:15;11.30;99.90
17988;DHT22;9119;50.932;5.342;2023-04-19T03:09:40;11.20;99.90
17988;DHT22;9119;50.932;5.342;2023-04-19T03:12:06;11.10;99.90
17988;DHT22;9119;50.932;5.342;2023-04-19T03:14:32;11.10;99.90
17988;DHT22;9119;50.932;5.342;2023-04-19T03:16:58;11.10;99.90
17988;DHT22;9119;50.932;5.342;2023-04-19T03:19:24;11.00;99.90
17988;DHT22;9119;50.932;5.342;2023-04-19T03:21:50;11.00;99.90
17988;DHT22;9119;50.932;5.342;2023-04-19T03:24:18;11.00;99.90
17988;DHT22;9119;50.932;5.342;2023-04-19T03:26:44;10.90;99.90
17988;DHT22;9119;50.932;5.342;2023-04-19T03:29:10;10.90;99.90
17988;DHT22;9119;50.932;5.342;2023-04-19T03:31:36;10.90;99.90
17988;DHT22;9119;50.932;5.342;2023-04-19T03:34:02;10.80;99.90
17988;DHT22;9119;50.932;5.342;2023-04-19T03:36:28;10.80;99.90
17988;DHT22;9119;50.932;5.342;2023-04-19T03:38:53;10.80;99.90
17988;DHT22;9119;50.932;5.342;2023-04-19T03:41:20;10.80;99.90
17988;DHT22;9119;50.932;5.342;2023-04-19T03:43:45;10.70;99.90
17988;DHT22;9119;50.932;5.342;2023-04-19T03:46:11;10.70;99.90
17988;DHT22;9119;50.932;5.342;2023-04-19T03:48:37;10.70;99.90
17988;DHT22;9119;50.932;5.342;2023-04-19T03:51:02;10.70;99.90
17988;DHT22;9119;50.932;5.342;2023-04-19T03:53:28;10.60;99.90
17988;DHT22;9119;50.932;5.342;2023-04-19T03:55:54;10.60;99.90
17988;DHT22;9119;50.932;5.342;2023-04-19T03:58:20;10.60;99.90
17988;DHT22;9119;50.932;5.342;2023-04-19T04:00:46;10.60;99.90
17988;DHT22;9119;50.932;5.342;2023-04-19T04:03:12;10.40;99.90
17988;DHT22;9119;50.932;5.342;2023-04-19T04:05:37;10.60;99.90
17988;DHT22;9119;50.932;5.342;2023-04-19T04:08:03;10.60;99.90
17988;DHT22;9119;50.932;5.342;2023-04-19T04:10:29;10.60;99.90
17988;DHT22;9119;50.932;5.342;2023-04-19T04:12:55;10.60;99.90
17988;DHT22;9119;50.932;5.342;2023-04-19T04:15:20;10.50;99.90
17988;DHT22;9119;50.932;5.342;2023-04-19T04:17:46;10.50;99.90
17988;DHT22;9119;50.932;5.342;2023-04-19T04:20:12;10.50;99.90
17988;DHT22;9119;50.932;5.342;2023-04-19T04:22:44;10.60;99.90
17988;DHT22;9119;50.932;5.342;2023-04-19T04:25:13;10.50;99.90
17988;DHT22;9119;50.932;5.342;2023-04-19T04:27:41;10.60;99.90
17988;DHT22;9119;50.932;5.342;2023-04-19T04:30:09;10.60;99.90
17988;DHT22;9119;50.932;5.342;2023-04-19T04:32:36;10.60;99.90
17988;DHT22;9119;50.932;5.342;2023-04-19T04:35:03;10.60;99.90
17988;DHT22;9119;50.932;5.342;2023-04-19T04:37:33;10.60;99.90
17988;DHT22;9119;50.932;5.342;2023-04-19T04:40:00;10.60;99.90
17988;DHT22;9119;50.932;5.342;2023-04-19T04:42:26;10.50;99.90
17988;DHT22;9119;50.932;5.342;2023-04-19T04:44:52;10.50;99.90
17988;DHT22;9119;50.932;5.342;2023-04-19T04:47:22;10.60;99.90
17988;DHT22;9119;50.932;5.342;2023-04-19T04:49:48;10.60;99.90
17988;DHT22;9119;50.932;5.342;2023-04-19T04:52:14;10.60;99.90
17988;DHT22;9119;50.932;5.342;2023-04-19T04:54:40;10.70;99.90
17988;DHT22;9119;50.932;5.342;2023-04-19T04:57:05;10.70;99.90
17988;DHT22;9119;50.932;5.342;2023-04-19T04:59:31;10.70;99.90
17988;DHT22;9119;50.932;5.342;2023-04-19T05:01:57;10.70;99.90
17988;DHT22;9119;50.932;5.342;2023-04-19T05:04:23;10.90;99.90
17988;DHT22;9119;50.932;5.342;2023-04-19T05:06:49;10.90;99.90
17988;DHT22;9119;50.932;5.342;2023-04-19T05:09:14;10.80;99.90
17988;DHT22;9119;50.932;5.342;2023-04-19T05:11:40;10.80;99.90
17988;DHT22;9119;50.932;5.342;2023-04-19T05:14:06;10.70;99.90
17988;DHT22;9119;50.932;5.342;2023-04-19T05:16:32;10.80;99.90
17988;DHT22;9119;50.932;5.342;2023-04-19T05:18:57;10.80;99.90
17988;DHT22;9119;50.932;5.342;2023-04-19T05:21:23;10.80;99.90
17988;DHT22;9119;50.932;5.342;2023-04-19T05:23:49;10.90;99.90
17988;DHT22;9119;50.932;5.342;2023-04-19T05:26:18;10.90;99.90
17988;DHT22;9119;50.932;5.342;2023-04-19T05:28:44;10.90;99.90
17988;DHT22;9119;50.932;5.342;2023-04-19T05:31:11;10.90;99.90
17988;DHT22;9119;50.932;5.342;2023-04-19T05:33:36;11.00;99.90
17988;DHT22;9119;50.932;5.342;2023-04-19T05:36:02;11.00;99.90
17988;DHT22;9119;50.932;5.342;2023-04-19T05:38:28;11.10;99.90
17988;DHT22;9119;50.932;5.342;2023-04-19T05:40:54;11.00;99.90
17988;DHT22;9119;50.932;5.342;2023-04-19T05:43:20;11.10;99.90
17988;DHT22;9119;50.932;5.342;2023-04-19T05:45:46;11.10;99.90
17988;DHT22;9119;50.932;5.342;2023-04-19T05:48:12;11.10;99.90
17988;DHT22;9119;50.932;5.342;2023-04-19T05:50:38;11.10;99.90
17988;DHT22;9119;50.932;5.342;2023-04-19T05:53:05;11.20;99.90
17988;DHT22;9119;50.932;5.342;2023-04-19T05:55:31;11.30;99.90
17988;DHT22;9119;50.932;5.342;2023-04-19T05:57:57;11.30;99.90
17988;DHT22;9119;50.932;5.342;2023-04-19T06:00:23;11.30;99.90
17988;DHT22;9119;50.932;5.342;2023-04-19T06:02:49;11.30;99.90
17988;DHT22;9119;50.932;5.342;2023-04-19T06:05:14;11.30;99.90
17988;DHT22;9119;50.932;5.342;2023-04-19T06:07:40;11.30;99.90
17988;DHT22;9119;50.932;5.342;2023-04-19T06:10:06;11.30;99.90
17988;DHT22;9119;50.932;5.342;2023-04-19T06:12:32;11.30;99.90
17988;DHT22;9119;50.932;5.342;2023-04-19T06:14:58;11.40;99.90
17988;DHT22;9119;50.932;5.342;2023-04-19T06:17:24;11.40;99.90
17988;DHT22;9119;50.932;5.342;2023-04-19T06:19:50;11.40;99.90
17988;DHT22;9119;50.932;5.342;2023-04-19T06:22:16;11.40;99.90
17988;DHT22;9119;50.932;5.342;2023-04-19T06:24:46;11.40;99.90
17988;DHT22;9119;50.932;5.342;2023-04-19T06:27:12;11.50;99.90
17988;DHT22;9119;50.932;5.342;2023-04-19T06:29:37;11.50;99.90
17988;DHT22;9119;50.932;5.342;2023-04-19T06:32:03;11.60;99.90
17988;DHT22;9119;50.932;5.342;2023-04-19T06:34:29;11.60;99.90
17988;DHT22;9119;50.932;5.342;2023-04-19T06:36:55;11.60;99.90
17988;DHT22;9119;50.932;5.342;2023-04-19T06:39:21;11.70;99.90
17988;DHT22;9119;50.932;5.342;2023-04-19T06:41:46;11.70;99.90
17988;DHT22;9119;50.932;5.342;2023-04-19T06:44:12;11.80;99.90
17988;DHT22;9119;50.932;5.342;2023-04-19T06:46:38;11.90;99.90
17988;DHT22;9119;50.932;5.342;2023-04-19T06:49:04;12.00;99.90
17988;DHT22;9119;50.932;5.342;2023-04-19T06:51:29;12.00;99.90
17988;DHT22;9119;50.932;5.342;2023-04-19T06:53:55;11.90;99.90
17988;DHT22;9119;50.932;5.342;2023-04-19T06:56:40;12.00;99.90
17988;DHT22;9119;50.932;5.342;2023-04-19T06:59:07;12.10;99.90
17988;DHT22;9119;50.932;5.342;2023-04-19T07:01:32;12.20;99.90
17988;DHT22;9119;50.932;5.342;2023-04-19T07:03:58;12.20;99.90
17988;DHT22;9119;50.932;5.342;2023-04-19T07:06:24;12.20;99.90
17988;DHT22;9119;50.932;5.342;2023-04-19T07:08:51;12.20;99.90
17988;DHT22;9119;50.932;5.342;2023-04-19T07:11:16;12.30;99.90
17988;DHT22;9119;50.932;5.342;2023-04-19T07:13:42;12.30;99.90
17988;DHT22;9119;50.932;5.342;2023-04-19T07:16:08;12.40;99.90
17988;DHT22;9119;50.932;5.342;2023-04-19T07:18:33;12.40;99.90
17988;DHT22;9119;50.932;5.342;2023-04-19T07:20:59;12.50;99.90
17988;DHT22;9119;50.932;5.342;2023-04-19T07:23:25;12.50;99.90
17988;DHT22;9119;50.932;5.342;2023-04-19T07:25:50;12.50;99.90
17988;DHT22;9119;50.932;5.342;2023-04-19T07:28:16;12.50;99.90
17988;DHT22;9119;50.932;5.342;2023-04-19T07:30:41;12.50;99.90
17988;DHT22;9119;50.932;5.342;2023-04-19T07:33:10;12.40;99.90
17988;DHT22;9119;50.932;5.342;2023-04-19T07:35:38;12.40;99.90
17988;DHT22;9119;50.932;5.342;2023-04-19T07:38:04;12.50;99.90
17988;DHT22;9119;50.932;5.342;2023-04-19T07:40:29;12.40;99.90
17988;DHT22;9119;50.932;5.342;2023-04-19T07:42:55;12.40;99.90
17988;DHT22;9119;50.932;5.342;2023-04-19T07:45:21;12.40;99.90
17988;DHT22;9119;50.932;5.342;2023-04-19T07:47:47;12.40;99.90
17988;DHT22;9119;50.932;5.342;2023-04-19T07:50:12;12.50;99.90
17988;DHT22;9119;50.932;5.342;2023-04-19T07:52:38;12.60;99.90
17988;DHT22;9119;50.932;5.342;2023-04-19T07:55:05;12.60;99.90
17988;DHT22;9119;50.932;5.342;2023-04-19T07:57:31;12.60;99.90
17988;DHT22;9119;50.932;5.342;2023-04-19T07:59:56;12.60;99.90
17988;DHT22;9119;50.932;5.342;2023-04-19T08:02:26;12.70;99.90
17988;DHT22;9119;50.932;5.342;2023-04-19T08:04:53;12.70;99.90
17988;DHT22;9119;50.932;5.342;2023-04-19T08:07:18;12.60;99.90
17988;DHT22;9119;50.932;5.342;2023-04-19T08:09:44;12.70;99.90
17988;DHT22;9119;50.932;5.342;2023-04-19T08:12:10;12.80;99.90
17988;DHT22;9119;50.932;5.342;2023-04-19T08:14:36;13.00;99.90
17988;DHT22;9119;50.932;5.342;2023-04-19T08:17:04;13.10;99.90
17988;DHT22;9119;50.932;5.342;2023-04-19T08:19:29;13.30;99.90
17988;DHT22;9119;50.932;5.342;2023-04-19T08:21:55;13.40;99.90
17988;DHT22;9119;50.932;5.342;2023-04-19T08:24:21;13.40;99.90
17988;DHT22;9119;50.932;5.342;2023-04-19T08:26:47;13.50;99.90
17988;DHT22;9119;50.932;5.342;2023-04-19T08:29:20;13.50;99.90
17988;DHT22;9119;50.932;5.342;2023-04-19T08:31:46;13.40;99.90
17988;DHT22;9119;50.932;5.342;2023-04-19T08:34:12;13.60;99.90
17988;DHT22;9119;50.932;5.342;2023-04-19T08:36:38;13.70;99.90
17988;DHT22;9119;50.932;5.342;2023-04-19T08:39:03;13.70;99.90
17988;DHT22;9119;50.932;5.342;2023-04-19T08:41:33;13.80;99.90
17988;DHT22;9119;50.932;5.342;2023-04-19T08:44:00;14.00;99.90
17988;DHT22;9119;50.932;5.342;2023-04-19T08:46:27;13.90;99.90
17988;DHT22;9119;50.932;5.342;2023-04-19T08:48:53;14.20;99.90
17988;DHT22;9119;50.932;5.342;2023-04-19T08:51:19;14.40;99.90
17988;DHT22;9119;50.932;5.342;2023-04-19T08:53:46;14.30;99.90
17988;DHT22;9119;50.932;5.342;2023-04-19T08:56:14;14.70;99.90
17988;DHT22;9119;50.932;5.342;2023-04-19T08:58:40;14.80;99.90
17988;DHT22;9119;50.932;5.342;2023-04-19T09:01:07;14.80;99.90
17988;DHT22;9119;50.932;5.342;2023-04-19T09:03:33;14.90;99.90
17988;DHT22;9119;50.932;5.342;2023-04-19T09:06:00;15.30;99.90
17988;DHT22;9119;50.932;5.342;2023-04-19T09:08:29;15.60;99.90
17988;DHT22;9119;50.932;5.342;2023-04-19T09:10:57;15.90;99.90
17988;DHT22;9119;50.932;5.342;2023-04-19T09:13:24;15.90;99.90
17988;DHT22;9119;50.932;5.342;2023-04-19T09:15:51;16.20;99.90
17988;DHT22;9119;50.932;5.342;2023-04-19T09:18:18;16.40;99.90
17988;DHT22;9119;50.932;5.342;2023-04-19T09:20:44;16.40;99.90
17988;DHT22;9119;50.932;5.342;2023-04-19T09:23:15;16.40;99.90
17988;DHT22;9119;50.932;5.342;2023-04-19T09:25:57;16.20;99.90
17988;DHT22;9119;50.932;5.342;2023-04-19T09:28:27;16.70;99.90
17988;DHT22;9119;50.932;5.342;2023-04-19T09:30:54;16.40;99.90
17988;DHT22;9119;50.932;5.342;2023-04-19T09:33:37;16.60;99.90
17988;DHT22;9119;50.932;5.342;2023-04-19T09:36:07;16.60;99.90
17988;DHT22;9119;50.932;5.342;2023-04-19T09:38:48;16.80;99.90
17988;DHT22;9119;50.932;5.342;2023-04-19T09:41:15;16.80;99.90
17988;DHT22;9119;50.932;5.342;2023-04-19T09:43:42;16.60;99.90
17988;DHT22;9119;50.932;5.342;2023-04-19T09:46:08;16.50;99.90
17988;DHT22;9119;50.932;5.342;2023-04-19T09:48:34;16.60;99.90
17988;DHT22;9119;50.932;5.342;2023-04-19T09:51:01;17.00;99.90
17988;DHT22;9119;50.932;5.342;2023-04-19T09:53:29;17.10;99.90
17988;DHT22;9119;50.932;5.342;2023-04-19T09:55:55;17.20;99.90
17988;DHT22;9119;50.932;5.342;2023-04-19T09:58:21;17.10;99.90
17988;DHT22;9119;50.932;5.342;2023-04-19T10:00:47;17.10;99.90
17988;DHT22;9119;50.932;5.342;2023-04-19T10:03:15;17.20;99.90
17988;DHT22;9119;50.932;5.342;2023-04-19T10:05:42;16.90;99.90
17988;DHT22;9119;50.932;5.342;2023-04-19T10:08:10;17.00;99.90
17988;DHT22;9119;50.932;5.342;2023-04-19T10:10:38;17.40;99.90
17988;DHT22;9119;50.932;5.342;2023-04-19T10:13:06;17.50;99.90
17988;DHT22;9119;50.932;5.342;2023-04-19T10:15:35;17.80;99.90
17988;DHT22;9119;50.932;5.342;2023-04-19T10:18:03;17.70;99.90
17988;DHT22;9119;50.932;5.342;2023-04-19T10:20:29;17.50;99.90
17988;DHT22;9119;50.932;5.342;2023-04-19T10:22:57;17.20;99.90
17988;DHT22;9119;50.932;5.342;2023-04-19T10:25:29;17.60;99.90
17988;DHT22;9119;50.932;5.342;2023-04-19T10:27:56;18.00;99.90
17988;DHT22;9119;50.932;5.342;2023-04-19T10:30:22;17.90;99.90
17988;DHT22;9119;50.932;5.342;2023-04-19T10:32:59;18.20;99.90
17988;DHT22;9119;50.932;5.342;2023-04-19T10:35:33;18.10;99.90
17988;DHT22;9119;50.932;5.342;2023-04-19T10:38:03;17.70;99.90
17988;DHT22;9119;50.932;5.342;2023-04-19T10:43:21;18.20;99.90
17988;DHT22;9119;50.932;5.342;2023-04-19T10:45:47;18.20;99.90
17988;DHT22;9119;50.932;5.342;2023-04-19T10:48:32;18.30;99.90
17988;DHT22;9119;50.932;5.342;2023-04-19T10:51:18;18.20;99.90
17988;DHT22;9119;50.932;5.342;2023-04-19T10:53:51;18.30;99.90
17988;DHT22;9119;50.932;5.342;2023-04-19T11:01:40;19.10;99.90
17988;DHT22;9119;50.932;5.342;2023-04-19T11:09:27;19.50;99.90
17988;DHT22;9119;50.932;5.342;2023-04-19T11:11:57;19.20;99.90
17988;DHT22;9119;50.932;5.342;2023-04-19T11:14:23;19.30;99.90
17988;DHT22;9119;50.932;5.342;2023-04-19T11:16:49;19.30;99.90
17988;DHT22;9119;50.932;5.342;2023-04-19T11:19:18;19.00;99.90
17988;DHT22;9119;50.932;5.342;2023-04-19T11:21:45;18.80;99.90
17988;DHT22;9119;50.932;5.342;2023-04-19T11:24:11;19.10;99.90
17988;DHT22;9119;50.932;5.342;2023-04-19T11:26:37;19.40;99.90
17988;DHT22;9119;50.932;5.342;2023-04-19T11:29:04;19.30;99.90
17988;DHT22;9119;50.932;5.342;2023-04-19T11:31:34;19.40;99.90
17988;DHT22;9119;50.932;5.342;2023-04-19T11:34:00;19.40;99.90
17988;DHT22;9119;50.932;5.342;2023-04-19T11:36:26;19.50;99.90
17988;DHT22;9119;50.932;5.342;2023-04-19T11:38:53;19.60;99.90
17988;DHT22;9119;50.932;5.342;2023-04-19T11:41:18;19.50;99.90
17988;DHT22;9119;50.932;5.342;2023-04-19T11:43:45;18.50;99.90
17988;DHT22;9119;50.932;5.342;2023-04-19T11:46:12;17.40;99.90
17988;DHT22;9119;50.932;5.342;2023-04-19T11:48:58;16.90;99.90
17988;DHT22;9119;50.932;5.342;2023-04-19T11:51:25;16.60;99.90
17988;DHT22;9119;50.932;5.342;2023-04-19T11:53:51;16.50;99.90
17988;DHT22;9119;50.932;5.342;2023-04-19T11:56:17;16.40;99.90
17988;DHT22;9119;50.932;5.342;2023-04-19T11:58:43;16.20;99.90
17988;DHT22;9119;50.932;5.342;2023-04-19T12:01:14;16.10;99.90
17988;DHT22;9119;50.932;5.342;2023-04-19T12:03:43;16.00;99.90
17988;DHT22;9119;50.932;5.342;2023-04-19T12:06:23;16.00;99.90
17988;DHT22;9119;50.932;5.342;2023-04-19T12:08:51;16.00;99.90
17988;DHT22;9119;50.932;5.342;2023-04-19T12:11:21;16.20;99.90
17988;DHT22;9119;50.932;5.342;2023-04-19T12:13:48;16.30;99.90
17988;DHT22;9119;50.932;5.342;2023-04-19T12:16:14;17.30;99.90
17988;DHT22;9119;50.932;5.342;2023-04-19T12:18:43;17.90;99.90
17988;DHT22;9119;50.932;5.342;2023-04-19T12:21:10;18.50;99.90
17988;DHT22;9119;50.932;5.342;2023-04-19T12:23:37;18.60;99.90
17988;DHT22;9119;50.932;5.342;2023-04-19T12:26:03;18.20;99.90
17988;DHT22;9119;50.932;5.342;2023-04-19T12:28:32;17.80;99.90
17988;DHT22;9119;50.932;5.342;2023-04-19T12:30:58;17.50;99.90
17988;DHT22;9119;50.932;5.342;2023-04-19T12:33:23;17.10;99.90
17988;DHT22;9119;50.932;5.342;2023-04-19T12:35:49;17.00;99.90
17988;DHT22;9119;50.932;5.342;2023-04-19T12:38:15;16.40;99.90
17988;DHT22;9119;50.932;5.342;2023-04-19T12:40:40;16.10;99.90
17988;DHT22;9119;50.932;5.342;2023-04-19T12:43:06;16.00;99.90
17988;DHT22;9119;50.932;5.342;2023-04-19T12:45:33;16.10;99.90
17988;DHT22;9119;50.932;5.342;2023-04-19T12:47:58;15.90;99.90
17988;DHT22;9119;50.932;5.342;2023-04-19T12:50:24;15.70;99.90
17988;DHT22;9119;50.932;5.342;2023-04-19T12:52:50;15.70;99.90
17988;DHT22;9119;50.932;5.342;2023-04-19T12:55:18;15.80;99.90
17988;DHT22;9119;50.932;5.342;2023-04-19T12:57:43;15.90;99.90
17988;DHT22;9119;50.932;5.342;2023-04-19T13:00:10;16.00;99.90
17988;DHT22;9119;50.932;5.342;2023-04-19T13:02:37;15.90;99.90
17988;DHT22;9119;50.932;5.342;2023-04-19T13:05:03;16.00;99.90
17988;DHT22;9119;50.932;5.342;2023-04-19T13:07:32;16.00;99.90
17988;DHT22;9119;50.932;5.342;2023-04-19T13:09:57;15.90;99.90
17988;DHT22;9119;50.932;5.342;2023-04-19T13:12:23;15.50;99.90
17988;DHT22;9119;50.932;5.342;2023-04-19T13:14:49;15.50;99.90
17988;DHT22;9119;50.932;5.342;2023-04-19T13:17:20;15.60;99.90
17988;DHT22;9119;50.932;5.342;2023-04-19T13:19:46;15.70;99.90
17988;DHT22;9119;50.932;5.342;2023-04-19T13:22:11;15.50;99.90
17988;DHT22;9119;50.932;5.342;2023-04-19T13:24:37;15.50;99.90
17988;DHT22;9119;50.932;5.342;2023-04-19T13:27:03;15.50;99.90
17988;DHT22;9119;50.932;5.342;2023-04-19T13:29:29;15.60;99.90
17988;DHT22;9119;50.932;5.342;2023-04-19T13:31:54;15.30;99.90
17988;DHT22;9119;50.932;5.342;2023-04-19T13:34:20;15.60;99.90
17988;DHT22;9119;50.932;5.342;2023-04-19T13:36:46;15.70;99.90
17988;DHT22;9119;50.932;5.342;2023-04-19T13:39:12;15.50;99.90
17988;DHT22;9119;50.932;5.342;2023-04-19T13:41:37;15.50;99.90
17988;DHT22;9119;50.932;5.342;2023-04-19T13:44:03;15.50;99.90
17988;DHT22;9119;50.932;5.342;2023-04-19T13:46:29;15.40;99.90
17988;DHT22;9119;50.932;5.342;2023-04-19T13:48:54;15.50;99.90
17988;DHT22;9119;50.932;5.342;2023-04-19T13:51:20;15.50;99.90
17988;DHT22;9119;50.932;5.342;2023-04-19T13:53:46;15.50;99.90
17988;DHT22;9119;50.932;5.342;2023-04-19T13:56:11;15.40;99.90
17988;DHT22;9119;50.932;5.342;2023-04-19T13:58:37;15.50;99.90
17988;DHT22;9119;50.932;5.342;2023-04-19T14:01:03;15.50;99.90
17988;DHT22;9119;50.932;5.342;2023-04-19T14:03:29;15.40;99.70
17988;DHT22;9119;50.932;5.342;2023-04-19T14:05:55;15.40;99.70
17988;DHT22;9119;50.932;5.342;2023-04-19T14:08:21;15.30;99.90
17988;DHT22;9119;50.932;5.342;2023-04-19T14:10:48;15.50;99.90
17988;DHT22;9119;50.932;5.342;2023-04-19T14:13:14;15.50;99.90
17988;DHT22;9119;50.932;5.342;2023-04-19T14:15:39;15.50;99.30
17988;DHT22;9119;50.932;5.342;2023-04-19T14:18:05;15.50;99.60
17988;DHT22;9119;50.932;5.342;2023-04-19T14:20:31;15.30;99.30
17988;DHT22;9119;50.932;5.342;2023-04-19T14:22:57;15.30;99.40
17988;DHT22;9119;50.932;5.342;2023-04-19T14:25:24;15.30;99.30
17988;DHT22;9119;50.932;5.342;2023-04-19T14:27:50;15.20;99.10
17988;DHT22;9119;50.932;5.342;2023-04-19T14:30:17;15.20;99.50
17988;DHT22;9119;50.932;5.342;2023-04-19T14:32:43;15.10;99.60
17988;DHT22;9119;50.932;5.342;2023-04-19T14:35:09;15.10;99.50
17988;DHT22;9119;50.932;5.342;2023-04-19T14:37:38;15.10;99.10
17988;DHT22;9119;50.932;5.342;2023-04-19T14:40:04;15.20;98.00
17988;DHT22;9119;50.932;5.342;2023-04-19T14:42:30;15.10;97.80
17988;DHT22;9119;50.932;5.342;2023-04-19T14:44:57;15.20;97.90
17988;DHT22;9119;50.932;5.342;2023-04-19T14:47:23;15.20;98.50
17988;DHT22;9119;50.932;5.342;2023-04-19T14:49:48;15.10;98.80
17988;DHT22;9119;50.932;5.342;2023-04-19T14:52:15;15.00;98.70
17988;DHT22;9119;50.932;5.342;2023-04-19T14:54:41;15.00;98.90
17988;DHT22;9119;50.932;5.342;2023-04-19T14:57:07;15.00;99.30
17988;DHT22;9119;50.932;5.342;2023-04-19T14:59:33;15.00;99.00
17988;DHT22;9119;50.932;5.342;2023-04-19T15:01:59;15.10;99.00
17988;DHT22;9119;50.932;5.342;2023-04-19T15:04:24;14.70;98.80
17988;DHT22;9119;50.932;5.342;2023-04-19T15:06:50;15.00;98.50
17988;DHT22;9119;50.932;5.342;2023-04-19T15:09:16;15.10;99.10
17988;DHT22;9119;50.932;5.342;2023-04-19T15:11:41;15.10;99.00
17988;DHT22;9119;50.932;5.342;2023-04-19T15:14:07;15.20;98.60
17988;DHT22;9119;50.932;5.342;2023-04-19T15:16:33;15.00;98.60
17988;DHT22;9119;50.932;5.342;2023-04-19T15:18:58;15.00;98.60
17988;DHT22;9119;50.932;5.342;2023-04-19T15:21:24;14.90;99.10
17988;DHT22;9119;50.932;5.342;2023-04-19T15:23:50;14.90;99.40
17988;DHT22;9119;50.932;5.342;2023-04-19T15:26:16;15.10;99.90
17988;DHT22;9119;50.932;5.342;2023-04-19T15:28:41;15.10;99.90
17988;DHT22;9119;50.932;5.342;2023-04-19T15:31:07;15.10;99.90
17988;DHT22;9119;50.932;5.342;2023-04-19T15:33:35;15.10;99.90
17988;DHT22;9119;50.932;5.342;2023-04-19T15:36:01;14.90;99.90
17988;DHT22;9119;50.932;5.342;2023-04-19T15:38:29;14.80;99.70
17988;DHT22;9119;50.932;5.342;2023-04-19T15:40:57;14.80;99.60
17988;DHT22;9119;50.932;5.342;2023-04-19T15:43:23;14.90;99.90
17988;DHT22;9119;50.932;5.342;2023-04-19T15:45:50;14.90;99.60
17988;DHT22;9119;50.932;5.342;2023-04-19T15:48:16;14.90;99.10
17988;DHT22;9119;50.932;5.342;2023-04-19T15:50:42;14.80;99.10
17988;DHT22;9119;50.932;5.342;2023-04-19T15:53:08;14.90;99.50
17988;DHT22;9119;50.932;5.342;2023-04-19T15:55:34;15.00;99.80